createdAt,value
2023-04-09T00:02:02.608Z,2.30
2023-04-09T00:04:29.431Z,2.26
2023-04-09T00:06:56.096Z,2.18
2023-04-09T00:09:22.774Z,2.12
2023-04-09T00:11:49.393Z,2.24
2023-04-09T00:14:16.195Z,2.27
2023-04-09T00:16:42.961Z,2.35
2023-04-09T00:19:09.648Z,2.33
2023-04-09T00:21:37.131Z,2.41
2023-04-09T00:24:04.008Z,2.47
2023-04-09T00:26:31.400Z,2.47
2023-04-09T00:28:58.329Z,2.40
2023-04-09T00:31:25.082Z,2.39
2023-04-09T00:33:51.761Z,2.44
2023-04-09T00:36:18.637Z,2.38
2023-04-09T00:38:46.574Z,2.43
2023-04-09T00:41:13.205Z,2.40
2023-04-09T00:43:39.910Z,2.31
2023-04-09T00:46:06.627Z,2.18
2023-04-09T00:48:33.591Z,2.18
2023-04-09T00:51:00.395Z,2.12
2023-04-09T00:53:27.079Z,2.08
2023-04-09T00:55:55.647Z,1.98
2023-04-09T00:58:22.529Z,1.95
2023-04-09T01:00:49.242Z,1.98
2023-04-09T01:03:16.426Z,1.98
2023-04-09T01:06:12.512Z,1.89
2023-04-09T01:08:52.202Z,1.86
2023-04-09T01:11:47.118Z,1.78
2023-04-09T01:14:16.796Z,2.02
2023-04-09T01:16:48.087Z,2.06
2023-04-09T01:19:46.423Z,1.94
2023-04-09T01:22:29.175Z,1.78
2023-04-09T01:25:14.727Z,1.66
2023-04-09T01:28:14.848Z,1.60
2023-04-09T01:30:44.592Z,1.56
2023-04-09T01:33:12.074Z,1.49
2023-04-09T01:35:38.953Z,1.44
2023-04-09T01:38:05.644Z,1.44
2023-04-09T01:40:32.346Z,1.39
2023-04-09T01:43:00.237Z,1.44
2023-04-09T01:45:27.132Z,1.52
2023-04-09T01:47:54.989Z,1.42
2023-04-09T01:50:22.125Z,1.27
2023-04-09T01:52:49.016Z,1.33
2023-04-09T01:55:15.803Z,1.34
2023-04-09T01:57:42.454Z,1.33
2023-04-09T02:00:10.455Z,1.37
2023-04-09T02:03:17.205Z,1.33
2023-04-09T02:05:46.979Z,1.48
2023-04-09T02:08:18.035Z,1.34
2023-04-09T02:10:53.180Z,1.26
2023-04-09T02:13:21.036Z,1.41
2023-04-09T02:15:48.730Z,1.43
2023-04-09T02:18:23.559Z,1.39
2023-04-09T02:20:52.414Z,1.38
2023-04-09T02:23:19.028Z,1.30
2023-04-09T02:25:45.829Z,1.43
2023-04-09T02:28:12.501Z,1.36
2023-04-09T02:30:39.262Z,1.36
2023-04-09T02:33:06.072Z,1.57
2023-04-09T02:35:33.332Z,1.56
2023-04-09T02:38:00.357Z,1.66
2023-04-09T02:40:27.155Z,1.64
2023-04-09T02:42:54.438Z,1.57
2023-04-09T02:45:21.227Z,1.61
2023-04-09T02:47:47.821Z,1.66
2023-04-09T02:50:14.494Z,1.86
2023-04-09T02:52:47.610Z,1.93
2023-04-09T02:55:14.744Z,1.79
2023-04-09T02:57:41.926Z,1.78
2023-04-09T03:00:09.288Z,1.79
2023-04-09T03:02:36.217Z,1.75
2023-04-09T03:05:03.121Z,1.64
2023-04-09T03:07:30.656Z,1.59
2023-04-09T03:09:57.464Z,1.59
2023-04-09T03:12:24.224Z,1.57
2023-04-09T03:14:50.875Z,1.49
2023-04-09T03:17:17.990Z,1.49
2023-04-09T03:19:46.170Z,1.48
2023-04-09T03:22:14.447Z,1.50
2023-04-09T03:24:41.086Z,1.57
2023-04-09T03:27:07.728Z,1.42
2023-04-09T03:29:34.597Z,1.23
2023-04-09T03:32:01.268Z,1.09
2023-04-09T03:34:27.926Z,0.99
2023-04-09T03:36:57.010Z,0.97
2023-04-09T03:39:30.704Z,0.89
2023-04-09T03:42:01.822Z,0.87
2023-04-09T03:44:33.421Z,0.70
2023-04-09T03:47:07.909Z,0.73
2023-04-09T03:49:36.453Z,0.65
2023-04-09T03:52:12.577Z,0.57
2023-04-09T03:54:43.590Z,0.52
2023-04-09T03:57:16.121Z,0.60
2023-04-09T03:59:45.503Z,0.61
2023-04-09T04:02:14.930Z,0.53
2023-04-09T04:04:46.622Z,0.53
2023-04-09T04:07:13.327Z,0.54
2023-04-09T04:09:46.390Z,0.49
2023-04-09T04:12:16.552Z,0.41
2023-04-09T04:14:57.167Z,0.35
2023-04-09T04:17:33.639Z,0.62
2023-04-09T04:20:02.770Z,0.87
2023-04-09T04:22:34.223Z,0.96
2023-04-09T04:25:00.949Z,0.93
2023-04-09T04:27:28.418Z,0.75
2023-04-09T04:29:55.528Z,0.67
2023-04-09T04:32:37.256Z,0.56
2023-04-09T04:35:08.731Z,0.45
2023-04-09T04:37:35.709Z,0.36
2023-04-09T04:40:03.104Z,0.31
2023-04-09T04:42:32.018Z,0.20
2023-04-09T04:45:00.757Z,0.22
2023-04-09T04:47:42.781Z,0.22
2023-04-09T04:50:09.930Z,0.29
2023-04-09T04:52:50.446Z,0.28
2023-04-09T04:55:17.504Z,0.29
2023-04-09T04:57:44.156Z,0.28
2023-04-09T05:00:12.418Z,0.32
2023-04-09T05:02:39.680Z,0.28
2023-04-09T05:05:24.798Z,0.28
2023-04-09T05:07:54.282Z,0.27
2023-04-09T05:10:21.933Z,0.26
2023-04-09T05:12:48.928Z,0.31
2023-04-09T05:15:25.000Z,0.33
2023-04-09T05:17:51.771Z,0.37
2023-04-09T05:20:18.788Z,0.32
2023-04-09T05:23:12.604Z,0.43
2023-04-09T05:25:46.245Z,0.54
2023-04-09T05:28:21.223Z,0.61
2023-04-09T05:30:53.503Z,0.62
2023-04-09T05:33:20.315Z,0.70
2023-04-09T05:35:46.972Z,0.69
2023-04-09T05:38:13.917Z,0.73
2023-04-09T05:40:44.412Z,0.78
2023-04-09T05:43:12.424Z,0.74
2023-04-09T05:45:42.560Z,0.77
2023-04-09T05:48:09.591Z,0.89
2023-04-09T05:50:47.538Z,0.87
2023-04-09T05:53:21.675Z,0.88
2023-04-09T05:55:51.703Z,1.05
2023-04-09T05:58:22.325Z,1.05
2023-04-09T06:00:51.624Z,1.02
2023-04-09T06:03:18.655Z,1.15
2023-04-09T06:05:46.665Z,1.28
2023-04-09T06:08:14.175Z,1.45
2023-04-09T06:10:41.526Z,1.57
2023-04-09T06:13:08.392Z,1.72
2023-04-09T06:15:38.241Z,1.77
2023-04-09T06:18:04.966Z,2.01
2023-04-09T06:20:31.741Z,2.02
2023-04-09T06:22:58.434Z,2.18
2023-04-09T06:25:25.145Z,2.09
2023-04-09T06:27:52.192Z,2.07
2023-04-09T06:30:18.737Z,2.02
2023-04-09T06:32:54.337Z,2.16
2023-04-09T06:35:22.238Z,2.33
2023-04-09T06:37:48.988Z,2.25
2023-04-09T06:40:15.624Z,2.20
2023-04-09T06:42:42.518Z,2.31
2023-04-09T06:45:31.254Z,2.42
2023-04-09T06:47:58.622Z,2.36
2023-04-09T06:50:25.347Z,2.29
2023-04-09T06:52:52.545Z,2.38
2023-04-09T06:55:19.448Z,2.26
2023-04-09T06:57:46.096Z,2.46
2023-04-09T07:00:13.217Z,2.39
2023-04-09T07:02:40.027Z,2.61
2023-04-09T07:05:07.034Z,2.69
2023-04-09T07:07:33.710Z,2.52
2023-04-09T07:10:00.552Z,2.81
2023-04-09T07:12:31.539Z,2.84
2023-04-09T07:15:02.209Z,2.81
2023-04-09T07:17:29.323Z,3.00
2023-04-09T07:19:55.959Z,3.29
2023-04-09T07:22:23.616Z,3.24
2023-04-09T07:24:54.376Z,3.39
2023-04-09T07:27:22.355Z,3.44
2023-04-09T07:29:49.224Z,3.50
2023-04-09T07:32:16.388Z,3.40
2023-04-09T07:34:43.856Z,3.65
2023-04-09T07:37:11.270Z,3.50
2023-04-09T07:39:38.179Z,3.55
2023-04-09T07:42:05.854Z,3.75
2023-04-09T07:44:36.537Z,4.09
2023-04-09T07:47:07.006Z,4.03
2023-04-09T07:49:36.003Z,3.88
2023-04-09T07:52:03.908Z,3.64
2023-04-09T07:54:31.785Z,3.52
2023-04-09T07:56:58.915Z,3.79
2023-04-09T07:59:27.825Z,4.08
2023-04-09T08:01:56.862Z,4.19
2023-04-09T08:04:23.784Z,4.37
2023-04-09T08:06:53.641Z,4.46
2023-04-09T08:09:21.292Z,4.31
2023-04-09T08:11:49.355Z,4.27
2023-04-09T08:14:17.121Z,4.53
2023-04-09T08:16:46.326Z,4.76
2023-04-09T08:19:16.166Z,4.74
2023-04-09T08:21:43.372Z,4.75
2023-04-09T08:24:11.533Z,4.77
2023-04-09T08:26:39.060Z,5.16
2023-04-09T08:29:06.002Z,4.80
2023-04-09T08:31:32.819Z,5.20
2023-04-09T08:33:59.477Z,5.31
2023-04-09T08:36:27.757Z,5.69
2023-04-09T08:38:57.506Z,5.45
2023-04-09T08:41:26.055Z,5.33
2023-04-09T08:44:00.875Z,5.22
2023-04-09T08:46:28.038Z,5.62
2023-04-09T08:48:57.989Z,5.60
2023-04-09T08:51:25.052Z,5.81
2023-04-09T08:54:00.764Z,5.88
2023-04-09T08:56:29.116Z,5.87
2023-04-09T08:58:56.387Z,5.84
2023-04-09T09:01:31.163Z,6.66
2023-04-09T09:04:05.913Z,7.51
2023-04-09T09:06:37.675Z,6.82
2023-04-09T09:09:12.636Z,6.81
2023-04-09T09:11:46.912Z,6.79
2023-04-09T09:14:15.476Z,6.71
2023-04-09T09:16:44.579Z,6.92
2023-04-09T09:19:26.858Z,6.91
2023-04-09T09:21:57.584Z,6.95
2023-04-09T09:24:24.231Z,7.13
2023-04-09T09:26:51.716Z,7.25
2023-04-09T09:29:19.815Z,6.68
2023-04-09T09:31:49.268Z,6.70
2023-04-09T09:34:17.369Z,6.78
2023-04-09T09:36:44.943Z,6.78
2023-04-09T09:39:13.191Z,6.87
2023-04-09T09:41:43.137Z,6.78
2023-04-09T09:44:11.561Z,7.04
2023-04-09T09:46:40.804Z,7.18
2023-04-09T09:49:08.378Z,7.25
2023-04-09T09:51:40.116Z,7.52
2023-04-09T09:54:08.436Z,7.47
2023-04-09T09:56:38.220Z,7.67
2023-04-09T09:59:21.932Z,7.56
2023-04-09T10:01:52.348Z,7.47
2023-04-09T10:04:20.632Z,7.41
2023-04-09T10:06:53.357Z,7.88
2023-04-09T10:09:21.261Z,7.92
2023-04-09T10:11:48.845Z,7.87
2023-04-09T10:14:16.708Z,7.95
2023-04-09T10:16:43.648Z,7.99
2023-04-09T10:19:14.294Z,8.05
2023-04-09T10:22:04.439Z,8.15
2023-04-09T10:24:31.737Z,8.52
2023-04-09T10:27:09.759Z,8.65
2023-04-09T10:29:46.399Z,8.55
2023-04-09T10:32:21.235Z,8.54
2023-04-09T10:34:49.215Z,8.69
2023-04-09T10:37:20.636Z,8.77
2023-04-09T10:39:48.710Z,8.91
2023-04-09T10:42:18.839Z,9.03
2023-04-09T10:44:46.044Z,9.29
2023-04-09T10:47:31.569Z,9.28
2023-04-09T10:49:58.296Z,9.39
2023-04-09T10:52:30.420Z,9.28
2023-04-09T10:54:57.181Z,9.36
2023-04-09T10:57:29.275Z,9.47
2023-04-09T10:59:55.994Z,9.49
2023-04-09T11:02:31.908Z,9.61
2023-04-09T11:05:23.725Z,9.94
2023-04-09T11:07:58.752Z,10.06
2023-04-09T11:10:25.479Z,9.98
2023-04-09T11:12:54.768Z,10.20
2023-04-09T11:15:21.644Z,10.50
2023-04-09T11:17:48.880Z,10.63
2023-04-09T11:20:24.094Z,10.82
2023-04-09T11:22:53.285Z,11.07
2023-04-09T11:25:28.094Z,11.11
2023-04-09T11:27:56.239Z,11.54
2023-04-09T11:30:23.215Z,11.45
2023-04-09T11:32:50.923Z,11.35
2023-04-09T11:35:22.242Z,11.62
2023-04-09T11:37:50.432Z,11.32
2023-04-09T11:40:24.286Z,11.43
2023-04-09T11:42:52.807Z,11.46
2023-04-09T11:45:33.124Z,11.73
2023-04-09T11:48:02.030Z,11.67
2023-04-09T11:50:44.351Z,11.65
2023-04-09T11:53:17.854Z,11.61
2023-04-09T11:55:47.645Z,11.57
2023-04-09T11:58:14.760Z,11.48
2023-04-09T12:00:41.493Z,11.57
2023-04-09T12:03:10.237Z,11.44
2023-04-09T12:05:41.675Z,11.60
2023-04-09T12:08:10.463Z,11.60
2023-04-09T12:10:38.679Z,11.69
2023-04-09T12:13:13.582Z,11.55
2023-04-09T12:15:41.935Z,11.55
2023-04-09T12:18:12.868Z,11.46
2023-04-09T12:20:44.206Z,11.77
2023-04-09T12:23:12.121Z,11.49
2023-04-09T12:25:41.282Z,11.73
2023-04-09T12:28:09.266Z,11.64
2023-04-09T12:30:36.290Z,11.61
2023-04-09T12:33:03.904Z,11.69
2023-04-09T12:35:30.980Z,11.79
2023-04-09T12:37:59.432Z,11.67
2023-04-09T12:40:26.657Z,11.98
2023-04-09T12:42:54.061Z,11.87
2023-04-09T12:45:21.462Z,11.60
2023-04-09T12:47:48.513Z,11.55
2023-04-09T12:50:16.445Z,11.73
2023-04-09T12:52:44.219Z,11.36
2023-04-09T12:55:11.786Z,11.45
2023-04-09T12:57:39.647Z,11.48
2023-04-09T13:00:07.834Z,11.46
2023-04-09T13:02:35.510Z,11.28
2023-04-09T13:05:02.573Z,11.40
2023-04-09T13:07:29.547Z,11.58
2023-04-09T13:09:56.989Z,11.44
2023-04-09T13:12:24.203Z,11.49
2023-04-09T13:14:53.654Z,11.47
2023-04-09T13:17:20.401Z,11.88
2023-04-09T13:19:47.257Z,12.15
2023-04-09T13:22:15.449Z,12.07
2023-04-09T13:24:43.210Z,12.05
2023-04-09T13:27:11.177Z,11.98
2023-04-09T13:29:38.250Z,11.59
2023-04-09T13:32:07.452Z,11.56
2023-04-09T13:34:35.153Z,11.43
2023-04-09T13:37:05.067Z,11.30
2023-04-09T13:39:31.790Z,11.33
2023-04-09T13:41:58.544Z,11.26
2023-04-09T13:44:26.686Z,11.29
2023-04-09T13:46:53.363Z,11.30
2023-04-09T13:49:22.488Z,11.11
2023-04-09T13:51:50.024Z,11.26
2023-04-09T13:54:17.248Z,11.22
2023-04-09T13:56:44.662Z,10.96
2023-04-09T13:59:11.582Z,10.74
2023-04-09T14:01:38.371Z,10.66
2023-04-09T14:04:05.253Z,10.76
2023-04-09T14:06:32.034Z,10.68
2023-04-09T14:08:58.659Z,10.73
2023-04-09T14:11:25.419Z,10.85
2023-04-09T14:13:52.562Z,10.68
2023-04-09T14:16:19.623Z,10.70
2023-04-09T14:18:46.355Z,10.66
2023-04-09T14:21:13.063Z,10.82
2023-04-09T14:23:39.874Z,10.74
2023-04-09T14:26:06.936Z,11.07
2023-04-09T14:28:33.714Z,11.25
2023-04-09T14:31:03.524Z,11.08
2023-04-09T14:33:32.762Z,11.31
2023-04-09T14:35:59.549Z,11.44
2023-04-09T14:38:26.546Z,11.45
2023-04-09T14:40:53.818Z,11.02
2023-04-09T14:43:20.509Z,11.05
2023-04-09T14:45:47.513Z,11.31
2023-04-09T14:48:14.300Z,11.38
2023-04-09T14:50:41.246Z,11.66
2023-04-09T14:53:07.916Z,11.69
2023-04-09T14:55:34.761Z,11.74
2023-04-09T14:58:04.413Z,11.76
2023-04-09T15:00:31.857Z,11.72
2023-04-09T15:02:58.669Z,11.38
2023-04-09T15:05:26.036Z,11.48
2023-04-09T15:07:52.686Z,11.40
2023-04-09T15:10:19.382Z,11.38
2023-04-09T15:12:46.121Z,11.03
2023-04-09T15:15:14.469Z,11.26
2023-04-09T15:17:41.256Z,11.16
2023-04-09T15:20:08.219Z,10.98
2023-04-09T15:22:34.876Z,10.96
2023-04-09T15:25:01.639Z,10.88
2023-04-09T15:27:28.370Z,11.00
2023-04-09T15:29:54.980Z,10.86
2023-04-09T15:32:21.847Z,10.82
2023-04-09T15:34:48.467Z,10.98
2023-04-09T15:37:15.494Z,11.08
2023-04-09T15:39:42.134Z,11.11
2023-04-09T15:42:10.262Z,11.18
2023-04-09T15:44:39.051Z,11.45
2023-04-09T15:47:05.636Z,11.54
2023-04-09T15:49:34.888Z,11.82
2023-04-09T15:52:01.525Z,11.84
2023-04-09T15:54:28.212Z,11.77
2023-04-09T15:56:54.872Z,11.80
2023-04-09T15:59:21.531Z,11.82
2023-04-09T16:01:48.669Z,11.58
2023-04-09T16:04:15.474Z,11.47
2023-04-09T16:06:42.200Z,11.61
2023-04-09T16:09:08.896Z,11.65
2023-04-09T16:11:38.478Z,11.60
2023-04-09T16:14:05.213Z,11.44
2023-04-09T16:16:32.044Z,11.31
2023-04-09T16:19:00.335Z,11.24
2023-04-09T16:21:28.153Z,11.18
2023-04-09T16:23:54.873Z,10.98
2023-04-09T16:26:21.526Z,10.84
2023-04-09T16:28:48.979Z,10.87
2023-04-09T16:31:16.013Z,10.81
2023-04-09T16:33:44.830Z,10.74
2023-04-09T16:36:11.504Z,10.74
2023-04-09T16:38:38.224Z,10.69
2023-04-09T16:41:04.958Z,10.78
2023-04-09T16:43:31.627Z,10.63
2023-04-09T16:45:58.503Z,10.48
2023-04-09T16:48:25.581Z,10.50
2023-04-09T16:50:52.189Z,10.50
2023-04-09T16:53:18.847Z,10.44
2023-04-09T16:55:45.594Z,10.43
2023-04-09T16:58:12.343Z,10.34
2023-04-09T17:00:40.120Z,10.28
2023-04-09T17:03:08.511Z,10.19
2023-04-09T17:05:35.265Z,10.16
2023-04-09T17:08:02.047Z,9.99
2023-04-09T17:10:28.726Z,9.71
2023-04-09T17:12:55.444Z,9.49
2023-04-09T17:15:22.771Z,9.36
2023-04-09T17:17:52.285Z,9.43
2023-04-09T17:20:20.885Z,9.43
2023-04-09T17:22:47.580Z,9.35
2023-04-09T17:25:14.216Z,9.22
2023-04-09T17:27:42.020Z,9.10
2023-04-09T17:30:08.858Z,8.98
2023-04-09T17:32:35.897Z,8.86
2023-04-09T17:35:03.710Z,8.75
2023-04-09T17:37:31.190Z,8.61
2023-04-09T17:39:57.868Z,8.44
2023-04-09T17:42:24.568Z,8.34
2023-04-09T17:44:51.935Z,8.19
2023-04-09T17:47:18.714Z,8.01
2023-04-09T17:49:46.250Z,7.86
2023-04-09T17:52:13.226Z,7.87
2023-04-09T17:54:45.483Z,7.73
2023-04-09T17:57:12.349Z,7.59
2023-04-09T17:59:39.263Z,7.57
2023-04-09T18:02:06.564Z,7.50
2023-04-09T18:04:34.790Z,7.49
2023-04-09T18:07:01.767Z,7.30
2023-04-09T18:09:28.421Z,7.14
2023-04-09T18:11:56.536Z,7.03
2023-04-09T18:14:27.526Z,6.98
2023-04-09T18:16:54.235Z,6.89
2023-04-09T18:19:21.037Z,6.80
2023-04-09T18:21:47.678Z,6.73
2023-04-09T18:24:14.500Z,6.70
2023-04-09T18:26:41.240Z,6.65
2023-04-09T18:29:08.577Z,6.56
2023-04-09T18:31:35.567Z,6.59
2023-04-09T18:34:02.220Z,6.57
2023-04-09T18:36:29.031Z,6.66
2023-04-09T18:38:56.290Z,6.70
2023-04-09T18:41:26.790Z,6.71
2023-04-09T18:43:54.109Z,6.54
2023-04-09T18:46:20.854Z,6.48
2023-04-09T18:48:47.579Z,6.51
2023-04-09T18:51:14.756Z,6.56
2023-04-09T18:53:41.972Z,6.71
2023-04-09T18:56:11.535Z,6.73
2023-04-09T18:58:38.885Z,6.71
2023-04-09T19:01:12.071Z,6.67
2023-04-09T19:03:39.695Z,6.67
2023-04-09T19:06:18.194Z,6.57
2023-04-09T19:08:45.894Z,6.44
2023-04-09T19:11:12.799Z,6.41
2023-04-09T19:13:39.823Z,6.34
2023-04-09T19:16:07.507Z,6.44
2023-04-09T19:18:34.331Z,6.50
2023-04-09T19:21:01.133Z,6.48
2023-04-09T19:23:27.795Z,6.42
2023-04-09T19:25:55.344Z,6.47
2023-04-09T19:28:24.881Z,6.25
2023-04-09T19:30:52.504Z,6.41
2023-04-09T19:33:26.820Z,6.46
2023-04-09T19:35:55.422Z,6.30
2023-04-09T19:38:22.177Z,6.32
2023-04-09T19:40:49.108Z,6.28
2023-04-09T19:43:16.330Z,6.21
2023-04-09T19:45:43.589Z,6.30
2023-04-09T19:48:10.675Z,6.15
2023-04-09T19:50:38.458Z,6.11
2023-04-09T19:53:06.117Z,6.12
2023-04-09T19:55:35.822Z,5.98
2023-04-09T19:58:03.133Z,5.93
2023-04-09T20:00:30.027Z,5.74
2023-04-09T20:02:57.476Z,5.92
2023-04-09T20:05:24.638Z,5.93
2023-04-09T20:07:52.646Z,5.98
2023-04-09T20:10:19.908Z,6.35
2023-04-09T20:12:47.983Z,6.29
2023-04-09T20:15:15.487Z,6.17
2023-04-09T20:17:42.770Z,6.12
2023-04-09T20:20:09.830Z,6.04
2023-04-09T20:22:36.888Z,6.10
2023-04-09T20:25:03.613Z,5.97
2023-04-09T20:27:31.321Z,5.85
2023-04-09T20:29:57.991Z,5.68
2023-04-09T20:32:24.647Z,5.62
2023-04-09T20:34:51.378Z,5.47
2023-04-09T20:37:17.991Z,5.34
2023-04-09T20:39:45.058Z,5.35
2023-04-09T20:42:11.677Z,5.25
2023-04-09T20:44:38.338Z,5.24
2023-04-09T20:47:05.028Z,5.51
2023-04-09T20:49:31.975Z,5.79
2023-04-09T20:51:58.787Z,5.91
2023-04-09T20:54:25.843Z,6.19
2023-04-09T20:56:52.468Z,6.52
2023-04-09T20:59:19.540Z,6.33
2023-04-09T21:01:46.248Z,6.46
2023-04-09T21:04:13.260Z,6.45
2023-04-09T21:06:40.471Z,6.28
2023-04-09T21:09:10.282Z,6.34
2023-04-09T21:11:36.990Z,6.23
2023-04-09T21:14:04.652Z,6.24
2023-04-09T21:16:31.421Z,6.29
2023-04-09T21:18:58.460Z,6.47
2023-04-09T21:21:27.548Z,6.66
2023-04-09T21:23:54.351Z,6.85
2023-04-09T21:26:21.097Z,6.74
2023-04-09T21:28:50.505Z,7.08
2023-04-09T21:31:17.675Z,7.10
2023-04-09T21:33:44.550Z,6.82
2023-04-09T21:36:11.228Z,6.59
2023-04-09T21:38:39.853Z,6.54
2023-04-09T21:41:07.274Z,6.41
2023-04-09T21:43:35.322Z,6.25
2023-04-09T21:46:03.117Z,6.40
2023-04-09T21:48:30.714Z,6.47
2023-04-09T21:50:58.430Z,6.50
2023-04-09T21:53:25.146Z,6.28
2023-04-09T21:55:51.749Z,6.25
2023-04-09T21:58:18.373Z,6.44
2023-04-09T22:00:44.997Z,6.34
2023-04-09T22:03:11.891Z,6.21
2023-04-09T22:05:38.664Z,6.07
2023-04-09T22:08:05.385Z,6.03
2023-04-09T22:10:32.133Z,6.02
2023-04-09T22:12:58.775Z,6.10
2023-04-09T22:15:26.012Z,6.67
2023-04-09T22:17:52.852Z,6.78
2023-04-09T22:20:19.597Z,6.93
2023-04-09T22:22:46.376Z,6.87
2023-04-09T22:25:13.034Z,6.71
2023-04-09T22:27:39.642Z,6.70
2023-04-09T22:30:06.996Z,6.46
2023-04-09T22:32:33.730Z,6.45
2023-04-09T22:35:00.602Z,6.47
2023-04-09T22:37:27.870Z,6.39
2023-04-09T22:39:54.756Z,6.32
2023-04-09T22:42:21.538Z,6.36
2023-04-09T22:44:48.232Z,6.32
2023-04-09T22:47:14.882Z,6.49
2023-04-09T22:49:41.565Z,6.79
2023-04-09T22:52:08.366Z,6.47
2023-04-09T22:54:35.120Z,6.61
2023-04-09T22:57:01.922Z,6.78
2023-04-09T22:59:37.233Z,6.68
2023-04-09T23:02:09.389Z,6.46
2023-04-09T23:04:36.821Z,6.25
2023-04-09T23:07:03.833Z,6.10
2023-04-09T23:09:31.187Z,6.08
2023-04-09T23:11:58.003Z,6.01
2023-04-09T23:14:24.702Z,5.84
2023-04-09T23:16:54.068Z,5.77
2023-04-09T23:19:20.743Z,5.63
2023-04-09T23:21:47.382Z,5.66
2023-04-09T23:24:14.110Z,5.54
2023-04-09T23:26:40.738Z,5.43
2023-04-09T23:29:07.418Z,5.34
2023-04-09T23:31:34.094Z,5.36
2023-04-09T23:34:00.953Z,5.38
2023-04-09T23:36:27.813Z,5.23
2023-04-09T23:38:54.514Z,5.28
2023-04-09T23:41:21.309Z,5.45
2023-04-09T23:43:47.926Z,5.32
2023-04-09T23:46:14.537Z,5.37
2023-04-09T23:48:41.131Z,5.36
2023-04-09T23:51:07.784Z,5.27
2023-04-09T23:53:34.387Z,5.27
2023-04-09T23:56:01.068Z,5.16
2023-04-09T23:58:27.690Z,5.08
